Time;durP1;ratioP1;P1;durP2;ratioP2;P2;SDS_P1;SDS_P2;PMS_P1;PMS_P2;Temp;Humidity;BMP_temperature;BMP_pressure;BME280_temperature;BME280_humidity;BME280_pressure;Samples;Min_cycle;Max_cycle;Signal;HPM_P1;HPM_P2
2023/01/27 10:32:45;;;;;;;17.45;13.95;;;2.80;99.90;;;;;;5068681;28;20923;-59
2023/01/27 10:35:31;;;;;;;10.07;8.07;;;2.90;99.90;;;;;;5068629;28;20032;-62
2023/01/27 10:38:29;;;;;;;9.27;7.10;;;3.10;99.90;;;;;;5059826;28;20650;-61
2023/01/27 10:40:54;;;;;;;8.60;6.80;;;3.50;99.90;;;;;;5067500;28;20033;-61
2023/01/27 10:43:50;;;;;;;10.25;7.22;;;3.90;99.90;;;;;;5067275;28;20025;-61
2023/01/27 10:46:16;;;;;;;8.10;5.90;;;4.20;99.90;;;;;;5067385;28;20487;-61
2023/01/27 10:48:58;;;;;;;6.78;5.57;;;4.60;99.90;;;;;;5069697;28;20021;-63
2023/01/27 10:51:36;;;;;;;7.47;5.88;;;4.80;99.90;;;;;;5069138;28;20115;-63
2023/01/27 10:54:14;;;;;;;6.18;5.07;;;4.90;99.90;;;;;;5070225;28;20027;-64
2023/01/27 10:56:48;;;;;;;5.53;4.93;;;4.90;99.90;;;;;;5069076;28;20474;-63
2023/01/27 10:59:13;;;;;;;5.65;4.70;;;4.90;99.90;;;;;;5069158;28;20463;-64
2023/01/27 11:02:04;;;;;;;5.20;4.68;;;4.90;99.90;;;;;;5067739;28;20032;-62
2023/01/27 11:04:41;;;;;;;5.32;4.18;;;4.90;99.90;;;;;;5061346;28;20078;-60
2023/01/27 11:07:19;;;;;;;5.65;4.13;;;4.90;99.90;;;;;;5068269;28;20024;-62
2023/01/27 11:09:56;;;;;;;4.55;3.95;;;4.90;99.90;;;;;;5067475;28;20110;-59
2023/01/27 11:12:32;;;;;;;4.63;4.07;;;4.90;99.90;;;;;;5068227;28;20053;-62
2023/01/27 11:15:00;;;;;;;4.03;3.67;;;4.90;99.90;;;;;;5068861;28;20017;-63
2023/01/27 11:17:39;;;;;;;4.20;3.80;;;4.90;99.90;;;;;;5069016;28;20028;-62
2023/01/27 11:20:26;;;;;;;3.63;3.28;;;4.90;99.90;;;;;;5068627;28;20033;-61
2023/01/27 11:23:04;;;;;;;4.30;3.55;;;4.90;99.90;;;;;;5069447;28;20027;-64
2023/01/27 11:25:46;;;;;;;4.47;3.78;;;4.80;99.90;;;;;;5068073;28;20021;-61
2023/01/27 11:28:36;;;;;;;4.28;3.75;;;4.80;99.90;;;;;;5068185;28;20479;-60
2023/01/27 11:31:23;;;;;;;4.95;4.30;;;4.90;99.90;;;;;;5067685;28;20495;-63
2023/01/27 11:34:14;;;;;;;4.28;3.45;;;4.80;99.90;;;;;;5068193;28;20021;-62
2023/01/27 11:36:40;;;;;;;4.45;4.05;;;4.80;99.90;;;;;;5068899;28;20032;-62
2023/01/27 11:39:09;;;;;;;6.32;5.25;;;4.70;99.90;;;;;;5068938;28;20025;-61
2023/01/27 11:41:56;;;;;;;6.50;5.90;;;4.70;99.90;;;;;;5068740;28;20024;-62
2023/01/27 11:44:28;;;;;;;6.78;6.05;;;4.60;99.90;;;;;;5053684;28;20025;-60
2023/01/27 11:46:54;;;;;;;5.30;4.45;;;4.40;99.90;;;;;;5053147;28;20262;-61
2023/01/27 11:49:34;;;;;;;5.70;5.10;;;4.20;99.90;;;;;;5052951;28;20027;-60
2023/01/27 11:52:14;;;;;;;5.72;4.93;;;4.30;99.90;;;;;;5053580;28;20025;-59
2023/01/27 11:54:52;;;;;;;6.40;5.80;;;4.30;99.90;;;;;;5053936;28;20032;-62
2023/01/27 11:57:21;;;;;;;8.07;6.70;;;4.30;99.90;;;;;;5053385;28;20025;-61
2023/01/27 11:59:50;;;;;;;5.57;5.07;;;4.20;99.90;;;;;;5053576;28;20100;-62
2023/01/27 12:02:29;;;;;;;6.82;5.80;;;4.30;99.90;;;;;;5054641;28;20112;-61
2023/01/27 12:05:00;;;;;;;8.98;7.45;;;4.30;99.90;;;;;;5054702;28;20426;-60
2023/01/27 12:07:34;;;;;;;7.57;6.88;;;4.20;99.90;;;;;;5055050;28;20107;-61
2023/01/27 12:10:00;;;;;;;7.38;6.22;;;4.00;99.90;;;;;;5054917;28;20044;-63
2023/01/27 12:12:26;;;;;;;7.93;6.63;;;4.00;99.90;;;;;;5053979;28;20036;-63
2023/01/27 12:14:57;;;;;;;7.93;6.75;;;4.00;99.90;;;;;;5055426;28;20467;-61
2023/01/27 12:17:39;;;;;;;7.50;6.70;;;4.10;99.90;;;;;;5055315;28;20543;-60
2023/01/27 12:20:20;;;;;;;6.55;5.78;;;4.00;99.90;;;;;;5055236;28;20025;-61
2023/01/27 12:22:50;;;;;;;5.00;4.50;;;3.90;99.90;;;;;;5055277;28;20017;-62
2023/01/27 12:25:23;;;;;;;5.82;5.20;;;4.00;99.90;;;;;;5055048;28;20475;-60
2023/01/27 12:27:53;;;;;;;9.82;7.53;;;4.20;99.90;;;;;;5055457;28;20356;-62
2023/01/27 12:30:29;;;;;;;6.50;5.80;;;4.30;99.90;;;;;;5055011;28;20025;-62
2023/01/27 12:32:56;;;;;;;8.60;7.13;;;4.40;99.90;;;;;;5055204;28;20105;-60
2023/01/27 12:35:24;;;;;;;7.25;6.55;;;4.30;99.90;;;;;;5055152;28;20051;-60
2023/01/27 12:38:00;;;;;;;8.88;7.55;;;4.10;99.90;;;;;;5054361;28;20094;-59
2023/01/27 12:40:28;;;;;;;7.68;6.88;;;4.00;99.90;;;;;;5053240;28;20021;-62
2023/01/27 12:43:02;;;;;;;9.25;7.13;;;3.80;99.90;;;;;;5053843;28;20025;-62
2023/01/27 12:45:38;;;;;;;7.72;6.93;;;3.80;99.90;;;;;;5053461;28;20029;-62
2023/01/27 12:48:13;;;;;;;6.82;5.95;;;3.90;99.90;;;;;;5054324;28;20163;-60
2023/01/27 12:50:51;;;;;;;6.70;5.85;;;3.90;99.90;;;;;;5053233;28;20431;-62
2023/01/27 12:53:19;;;;;;;9.70;8.68;;;4.10;99.90;;;;;;5054459;28;20036;-61
2023/01/27 12:56:16;;;;;;;9.13;7.18;;;4.10;99.90;;;;;;5053678;28;20048;-59
2023/01/27 12:58:45;;;;;;;6.50;5.88;;;4.00;99.90;;;;;;5051419;28;20029;-60
2023/01/27 13:01:37;;;;;;;7.38;6.45;;;4.00;99.90;;;;;;5054840;28;20063;-62
2023/01/27 13:04:04;;;;;;;6.45;5.65;;;4.10;99.90;;;;;;5054472;28;20090;-59
2023/01/27 13:06:38;;;;;;;9.95;8.18;;;4.10;99.90;;;;;;5054438;28;20033;-61
2023/01/27 13:09:04;;;;;;;7.18;6.15;;;4.10;99.90;;;;;;5054218;28;20029;-61
2023/01/27 13:11:39;;;;;;;9.65;7.97;;;4.00;99.90;;;;;;5054399;28;20040;-61
2023/01/27 13:14:16;;;;;;;8.48;7.45;;;4.10;99.90;;;;;;5054605;28;20036;-60
2023/01/27 13:16:50;;;;;;;7.15;6.45;;;4.00;99.90;;;;;;5054176;28;20025;-63
2023/01/27 13:19:17;;;;;;;9.10;8.05;;;3.90;99.90;;;;;;5054255;28;20417;-61
2023/01/27 13:21:46;;;;;;;8.05;6.57;;;4.00;99.90;;;;;;5054321;28;20029;-61
2023/01/27 13:24:18;;;;;;;6.20;5.22;;;4.00;99.90;;;;;;5054415;28;20083;-62
2023/01/27 13:26:45;;;;;;;5.10;4.60;;;4.10;99.90;;;;;;5054382;28;20025;-62
2023/01/27 13:29:15;;;;;;;7.80;6.13;;;4.10;99.90;;;;;;5053995;28;20027;-62
2023/01/27 13:32:03;;;;;;;11.20;9.32;;;4.10;99.90;;;;;;5053741;28;20056;-62
2023/01/27 13:34:49;;;;;;;10.95;9.40;;;4.00;99.90;;;;;;5053841;28;20021;-63
2023/01/27 13:37:39;;;;;;;10.27;8.55;;;4.00;99.90;;;;;;5053821;28;20055;-60
2023/01/27 13:40:11;;;;;;;7.60;6.57;;;3.90;99.90;;;;;;5053963;28;20039;-63
2023/01/27 13:42:50;;;;;;;7.53;6.78;;;3.80;99.90;;;;;;5053852;28;20090;-63
2023/01/27 13:45:21;;;;;;;6.28;5.63;;;3.80;99.90;;;;;;5054008;28;20035;-61
2023/01/27 13:48:07;;;;;;;6.80;6.07;;;3.80;99.90;;;;;;5053800;28;20017;-61
2023/01/27 13:50:41;;;;;;;6.90;6.15;;;3.90;99.90;;;;;;5053337;28;20413;-59
2023/01/27 13:53:11;;;;;;;6.63;6.00;;;3.90;99.90;;;;;;5053639;28;20021;-60
2023/01/27 13:55:55;;;;;;;9.52;8.07;;;3.90;99.90;;;;;;5053432;28;20506;-58
2023/01/27 13:58:49;;;;;;;8.60;7.70;;;3.90;99.90;;;;;;5053588;28;20025;-63
2023/01/27 14:01:42;;;;;;;8.20;6.93;;;3.70;99.90;;;;;;5053624;28;20040;-61
2023/01/27 14:04:17;;;;;;;8.55;6.78;;;3.60;99.90;;;;;;5052267;28;20383;-62
2023/01/27 14:07:01;;;;;;;6.43;5.65;;;3.50;99.90;;;;;;5053097;28;20425;-57
2023/01/27 14:10:04;;;;;;;8.27;7.25;;;3.60;99.90;;;;;;5053335;28;20143;-60
2023/01/27 14:13:01;;;;;;;7.82;6.18;;;3.80;99.90;;;;;;5053150;28;20075;-60
2023/01/27 14:15:31;;;;;;;9.57;8.48;;;3.70;99.90;;;;;;5052406;28;20021;-58
2023/01/27 14:18:23;;;;;;;12.55;9.73;;;3.80;99.90;;;;;;5051411;28;20029;-61
2023/01/27 14:20:54;;;;;;;10.07;8.40;;;3.70;99.90;;;;;;5047775;28;20079;-59
2023/01/27 14:23:51;;;;;;;8.55;6.93;;;3.60;99.90;;;;;;5052085;28;20021;-63
2023/01/27 14:26:32;;;;;;;7.18;6.47;;;3.70;99.90;;;;;;5040500;28;20063;-61
2023/01/27 14:28:58;;;;;;;6.30;5.68;;;3.60;99.90;;;;;;5052879;28;20075;-64
2023/01/27 14:31:49;;;;;;;8.93;7.80;;;3.70;99.90;;;;;;5053047;28;20080;-61
2023/01/27 14:34:48;;;;;;;8.20;6.68;;;3.80;99.90;;;;;;5048754;28;20029;-62
2023/01/27 14:37:32;;;;;;;9.57;8.20;;;3.80;99.90;;;;;;5052616;28;20155;-63
2023/01/27 14:40:19;;;;;;;8.35;7.20;;;3.70;99.90;;;;;;5052289;28;20478;-62
